Time;durP1;ratioP1;P1;durP2;ratioP2;P2;SDS_P1;SDS_P2;PMS_P1;PMS_P2;Temp;Humidity;BMP_temperature;BMP_pressure;BME280_temperature;BME280_humidity;BME280_pressure;Samples;Min_cycle;Max_cycle;Signal;HPM_P1;HPM_P2
2022/06/25 00:01:52;;;;;;;10.65;2.50;;;;;;;18.45;78.90;100525.38;5075865;28;20084;-62
2022/06/25 00:07:06;;;;;;;5.90;2.20;;;;;;;18.34;79.11;100529.53;5075795;28;20405;-62
2022/06/25 00:09:33;;;;;;;10.68;2.42;;;;;;;18.39;79.12;100529.72;5076156;28;20526;-62
2022/06/25 00:14:46;;;;;;;8.63;2.35;;;;;;;18.27;79.02;100526.03;5075767;28;20040;-62
2022/06/25 00:17:13;;;;;;;12.05;2.53;;;;;;;18.25;79.25;100522.75;5076040;28;20568;-61
2022/06/25 00:19:39;;;;;;;12.50;2.30;;;;;;;18.22;78.83;100532.03;5076018;28;20044;-61
2022/06/25 00:22:06;;;;;;;6.65;2.33;;;;;;;18.20;79.38;100516.13;5075801;28;20098;-62
2022/06/25 00:24:33;;;;;;;5.82;2.00;;;;;;;18.19;79.14;100530.59;5075923;28;20079;-61
2022/06/25 00:26:59;;;;;;;10.93;2.55;;;;;;;18.21;79.33;100530.41;5075776;28;20045;-61
2022/06/25 00:29:26;;;;;;;4.65;1.98;;;;;;;18.14;79.38;100533.09;5075706;28;20049;-62
2022/06/25 00:31:53;;;;;;;12.05;2.28;;;;;;;18.11;79.84;100535.34;5074946;28;20045;-62
2022/06/25 00:34:20;;;;;;;6.88;2.40;;;;;;;18.11;79.74;100538.03;5075620;28;20045;-62
2022/06/25 00:36:47;;;;;;;10.23;2.28;;;;;;;18.15;80.02;100550.81;5075678;28;20040;-62
2022/06/25 00:39:14;;;;;;;10.23;2.45;;;;;;;18.18;79.96;100550.41;5075733;28;20052;-62
2022/06/25 00:41:40;;;;;;;8.75;2.60;;;;;;;18.20;79.94;100548.34;5075400;28;20098;-62
2022/06/25 00:44:08;;;;;;;6.40;2.40;;;;;;;18.14;80.10;100554.56;5075511;28;20059;-62
2022/06/25 00:46:35;;;;;;;8.38;2.58;;;;;;;18.14;80.41;100553.75;5075470;28;20048;-61
2022/06/25 00:49:03;;;;;;;7.72;2.65;;;;;;;18.09;81.27;100558.91;5075559;28;20071;-62
2022/06/25 00:51:32;;;;;;;12.00;2.65;;;;;;;18.05;81.40;100557.69;5074888;28;20044;-62
2022/06/25 00:54:04;;;;;;;13.73;3.00;;;;;;;18.00;81.77;100555.59;5057555;28;20048;-62
2022/06/25 00:56:36;;;;;;;;;;;;;;;17.95;82.01;100558.88;5075632;28;20041;-61
2022/06/25 00:59:05;;;;;;;13.10;2.80;;;;;;;17.93;82.72;100562.81;5075090;28;19924;-61
2022/06/25 01:01:35;;;;;;;11.20;2.90;;;;;;;17.94;82.49;100567.16;5074559;28;20044;-61
2022/06/25 01:04:02;;;;;;;13.10;3.15;;;;;;;17.96;82.85;100573.97;5074798;28;20068;-61
2022/06/25 01:06:29;;;;;;;9.27;3.20;;;;;;;17.95;82.82;100571.50;5074972;28;20048;-61
2022/06/25 01:08:57;;;;;;;8.68;2.85;;;;;;;17.91;83.66;100567.56;5074895;28;20044;-62
2022/06/25 01:11:25;;;;;;;12.05;3.15;;;;;;;17.83;83.89;100569.41;5074971;28;20045;-61
2022/06/25 01:13:53;;;;;;;9.23;3.10;;;;;;;17.93;83.59;100574.38;5075000;28;20055;-61
2022/06/25 01:16:21;;;;;;;8.13;3.50;;;;;;;17.88;83.99;100579.53;5074586;28;20044;-62
2022/06/25 01:18:49;;;;;;;12.05;3.60;;;;;;;17.89;83.85;100578.50;5074672;28;20090;-62
2022/06/25 01:21:16;;;;;;;11.43;3.45;;;;;;;17.86;83.72;100580.78;5074757;28;20048;-61
2022/06/25 01:23:43;;;;;;;16.60;3.55;;;;;;;17.87;84.16;100585.94;5074902;28;20049;-61
2022/06/25 01:26:10;;;;;;;11.70;3.58;;;;;;;17.93;83.99;100585.09;5060367;28;20037;-62
2022/06/25 01:28:36;;;;;;;14.30;3.15;;;;;;;17.90;83.24;100590.91;5054376;28;20111;-61
2022/06/25 01:31:03;;;;;;;11.07;3.28;;;;;;;17.93;83.37;100589.66;5053808;28;20552;-62
2022/06/25 01:33:30;;;;;;;11.88;3.40;;;;;;;17.93;83.50;100590.47;5053787;28;20056;-62
2022/06/25 01:35:57;;;;;;;8.05;3.50;;;;;;;17.93;83.39;100595.84;5054240;28;20044;-62
2022/06/25 01:38:26;;;;;;;12.85;3.90;;;;;;;17.93;83.74;100603.06;5054538;28;20079;-62
2022/06/25 01:40:52;;;;;;;11.40;3.42;;;;;;;17.93;83.74;100601.22;5054097;28;20376;-62
2022/06/25 01:43:19;;;;;;;13.48;3.60;;;;;;;17.91;83.78;100597.91;5054416;28;20053;-62
2022/06/25 01:45:46;;;;;;;10.18;3.58;;;;;;;17.85;83.61;100604.13;5054298;28;20045;-62
2022/06/25 01:48:13;;;;;;;10.30;3.60;;;;;;;17.89;83.90;100601.84;5053980;28;20043;-62
2022/06/25 01:50:39;;;;;;;11.05;3.88;;;;;;;17.80;83.83;100601.19;5052498;28;20049;-62
2022/06/25 01:53:06;;;;;;;11.63;3.50;;;;;;;17.70;84.27;100604.28;5054018;28;20045;-62
2022/06/25 01:55:33;;;;;;;11.77;3.67;;;;;;;17.75;84.28;100600.97;5053928;28;20124;-62
2022/06/25 01:58:01;;;;;;;12.05;4.00;;;;;;;17.78;83.69;100609.44;5054032;28;20061;-62
2022/06/25 02:00:30;;;;;;;11.00;3.70;;;;;;;17.86;82.86;100615.66;5054002;28;20068;-62
2022/06/25 02:03:05;;;;;;;9.60;3.78;;;;;;;17.76;83.86;100616.88;5053971;28;20048;-62
2022/06/25 02:06:04;;;;;;;14.02;4.00;;;;;;;17.77;84.44;100609.63;5053074;28;20044;-62
2022/06/25 02:08:22;;;;;;;13.52;3.78;;;;;;;17.77;84.15;100621.22;5053748;28;20064;-62
2022/06/25 02:10:49;;;;;;;9.13;3.85;;;;;;;17.80;83.97;100620.78;5053795;28;20044;-62
2022/06/25 02:13:16;;;;;;;10.40;3.80;;;;;;;17.82;83.86;100628.63;5053561;28;20048;-62
2022/06/25 02:15:43;;;;;;;12.55;4.00;;;;;;;17.82;83.68;100618.72;5053650;28;20052;-61
2022/06/25 02:18:11;;;;;;;9.30;3.88;;;;;;;17.78;83.78;100622.84;5053838;28;20549;-61
2022/06/25 02:20:39;;;;;;;12.65;4.05;;;;;;;17.76;84.21;100626.78;5036004;28;20045;-61
2022/06/25 02:23:08;;;;;;;10.52;3.70;;;;;;;17.76;84.37;100619.53;5052042;28;20388;-61
2022/06/25 02:25:35;;;;;;;11.23;3.88;;;;;;;17.73;83.80;100629.84;5053746;28;20048;-61
2022/06/25 02:28:02;;;;;;;11.77;3.72;;;;;;;17.78;83.83;100633.56;5053396;28;20064;-63
2022/06/25 02:30:30;;;;;;;12.88;3.70;;;;;;;17.75;84.05;100631.28;5053031;28;20439;-62
2022/06/25 02:32:56;;;;;;;11.00;4.45;;;;;;;17.77;83.42;100631.09;5053590;28;20045;-65
2022/06/25 02:35:23;;;;;;;13.27;3.80;;;;;;;17.77;84.63;100642.66;5053604;28;20045;-62
2022/06/25 02:37:50;;;;;;;10.25;3.97;;;;;;;17.75;84.41;100643.88;5053620;28;20049;-62
2022/06/25 02:40:18;;;;;;;13.90;3.78;;;;;;;17.70;84.38;100647.19;5053488;28;20502;-62
2022/06/25 02:42:46;;;;;;;12.32;4.55;;;;;;;17.66;84.91;100643.25;5053500;28;20087;-62
2022/06/25 02:45:13;;;;;;;10.07;3.80;;;;;;;17.72;84.95;100649.66;5053379;28;20073;-62
2022/06/25 02:47:45;;;;;;;14.13;3.95;;;;;;;17.71;84.98;100653.38;5053378;28;20438;-61
2022/06/25 02:50:12;;;;;;;11.85;4.15;;;;;;;17.65;84.87;100653.16;5053004;28;20127;-61
2022/06/25 02:52:40;;;;;;;14.73;4.10;;;;;;;17.63;85.11;100649.84;5052878;28;20449;-62
2022/06/25 02:55:12;;;;;;;13.40;4.20;;;;;;;17.63;85.22;100652.53;5053271;28;20548;-61
2022/06/25 03:00:39;;;;;;;13.80;4.40;;;;;;;17.56;85.94;100653.56;5072767;28;20074;-62
2022/06/25 03:03:07;;;;;;;11.65;4.68;;;;;;;17.57;85.72;100657.88;5072972;28;20052;-62
2022/06/25 03:05:36;;;;;;;16.48;5.00;;;;;;;17.54;85.80;100656.44;5072560;28;20482;-61
2022/06/25 03:08:03;;;;;;;15.35;4.82;;;;;;;17.48;86.08;100653.72;5055538;28;20049;-62
2022/06/25 03:10:29;;;;;;;14.52;4.85;;;;;;;17.43;86.61;100655.16;5072777;28;20036;-61
2022/06/25 03:12:56;;;;;;;11.25;4.70;;;;;;;17.46;86.92;100653.91;5072914;28;20037;-61
2022/06/25 03:15:26;;;;;;;15.00;4.82;;;;;;;17.46;86.63;100659.28;5073038;28;20048;-61
2022/06/25 03:17:53;;;;;;;11.70;4.90;;;;;;;17.42;86.96;100658.03;5072900;28;20498;-62
2022/06/25 03:20:40;;;;;;;19.80;5.15;;;;;;;17.46;86.86;100661.97;5072624;28;20044;-61
2022/06/25 03:23:07;;;;;;;12.88;4.30;;;;;;;17.46;86.93;100660.13;5073110;28;20063;-61
2022/06/25 03:25:34;;;;;;;14.23;5.15;;;;;;;17.40;87.61;100662.78;5070522;28;20131;-61
2022/06/25 03:28:04;;;;;;;13.68;5.05;;;;;;;17.41;87.25;100661.75;5052739;28;20051;-61
2022/06/25 03:30:35;;;;;;;11.73;4.85;;;;;;;17.41;87.18;100672.50;5052351;28;20037;-61
2022/06/25 03:33:02;;;;;;;10.32;4.85;;;;;;;17.42;86.77;100676.81;5052731;28;20049;-61
2022/06/25 03:35:47;;;;;;;16.35;5.00;;;;;;;17.39;87.13;100678.03;5056767;28;20119;-62
2022/06/25 03:38:17;;;;;;;13.15;5.05;;;;;;;17.39;87.29;100682.56;5055763;28;20124;-62
2022/06/25 03:40:45;;;;;;;14.75;5.10;;;;;;;17.36;87.60;100678.44;5056719;28;20049;-62
2022/06/25 03:43:14;;;;;;;12.73;4.50;;;;;;;17.43;87.38;100683.84;5056715;28;20044;-61
2022/06/25 03:45:43;;;;;;;16.10;5.30;;;;;;;17.37;87.91;100693.50;5056254;28;20037;-62
2022/06/25 03:48:10;;;;;;;21.25;5.03;;;;;;;17.36;87.90;100693.72;5056328;28;20045;-62
2022/06/25 03:50:56;;;;;;;12.48;5.30;;;;;;;17.36;88.14;100696.38;5055879;28;20057;-61
2022/06/25 03:53:24;;;;;;;13.55;5.47;;;;;;;17.35;87.91;100698.22;5056562;28;20110;-61
2022/06/25 03:55:50;;;;;;;14.00;5.28;;;;;;;17.40;87.69;100698.47;5058448;28;20449;-62
2022/06/25 03:58:18;;;;;;;16.90;5.68;;;;;;;17.34;87.85;100695.75;5076508;28;20114;-62
2022/06/25 04:00:45;;;;;;;13.23;5.38;;;;;;;17.34;88.07;100695.75;5076282;28;20048;-61
2022/06/25 04:03:13;;;;;;;22.33;6.28;;;;;;;17.38;87.69;100697.00;5076000;28;20123;-61
2022/06/25 04:06:00;;;;;;;11.60;5.40;;;;;;;17.37;87.86;100698.03;5075808;28;20040;-62
2022/06/25 04:08:36;;;;;;;22.45;6.07;;;;;;;17.36;88.01;100693.72;5076407;28;20071;-61
2022/06/25 04:11:05;;;;;;;18.73;5.75;;;;;;;17.33;88.22;100696.78;5076073;28;20139;-62
2022/06/25 04:13:34;;;;;;;17.80;5.57;;;;;;;17.30;87.67;100691.81;5075926;28;20098;-62
2022/06/25 04:16:01;;;;;;;18.50;5.90;;;;;;;17.40;88.01;100694.97;5076036;28;20135;-61
2022/06/25 04:18:28;;;;;;;11.80;5.65;;;;;;;17.41;87.67;100700.13;5075985;28;20059;-61
2022/06/25 04:20:54;;;;;;;12.90;5.50;;;;;;;17.40;87.88;100698.47;5075748;28;20033;-61
2022/06/25 04:23:21;;;;;;;15.68;5.40;;;;;;;17.42;88.04;100695.56;5076028;28;20044;-61
2022/06/25 04:25:49;;;;;;;18.98;5.13;;;;;;;17.40;87.89;100698.47;5075713;28;20032;-61
2022/06/25 04:31:21;;;;;;;15.68;5.00;;;;;;;17.34;87.62;100699.25;5075658;28;20040;-62
2022/06/25 04:33:48;;;;;;;16.70;5.30;;;;;;;17.44;87.45;100707.78;5074951;28;20054;-62
2022/06/25 04:36:15;;;;;;;9.55;4.50;;;;;;;17.45;87.80;100711.28;5075425;28;20082;-62
2022/06/25 04:38:49;;;;;;;17.77;5.13;;;;;;;17.49;87.55;100707.16;5075762;28;20045;-62
2022/06/25 04:41:16;;;;;;;11.50;5.15;;;;;;;17.31;87.60;100705.00;5075715;28;20048;-62
2022/06/25 04:43:46;;;;;;;13.20;5.40;;;;;;;17.41;87.63;100713.53;5075718;28;20182;-62
2022/06/25 04:46:18;;;;;;;10.32;4.90;;;;;;;17.48;87.26;100710.84;5075184;28;20048;-61
2022/06/25 04:48:46;;;;;;;17.55;5.38;;;;;;;17.51;86.93;100702.41;5075300;28;20448;-61
2022/06/25 04:51:26;;;;;;;15.43;5.38;;;;;;;17.59;87.06;100702.25;5074961;28;20083;-63
2022/06/25 04:53:55;;;;;;;17.75;5.43;;;;;;;17.60;86.58;100697.72;5075323;28;20048;-62
2022/06/25 04:56:34;;;;;;;18.83;5.45;;;;;;;17.64;86.35;100698.94;5075397;28;20123;-63
2022/06/25 04:59:00;;;;;;;14.27;5.43;;;;;;;17.68;86.36;100704.75;5075098;28;20048;-62
2022/06/25 05:01:47;;;;;;;12.55;5.05;;;;;;;17.77;85.87;100703.53;5074791;28;20049;-61
2022/06/25 05:04:14;;;;;;;10.15;4.72;;;;;;;17.79;85.24;100702.31;5074770;28;20048;-61
2022/06/25 05:06:41;;;;;;;13.40;5.03;;;;;;;17.82;85.31;100704.56;5075070;28;20045;-61
2022/06/25 05:09:08;;;;;;;10.18;4.70;;;;;;;17.87;85.61;100706.69;5075154;28;20064;-62
2022/06/25 05:11:35;;;;;;;18.30;4.78;;;;;;;17.87;84.53;100709.38;5075113;28;20056;-62
2022/06/25 05:14:01;;;;;;;14.10;4.78;;;;;;;17.95;84.27;100717.22;5074884;28;20080;-61
2022/06/25 05:16:28;;;;;;;15.82;4.38;;;;;;;17.89;83.21;100717.22;5075007;28;20427;-62
2022/06/25 05:18:56;;;;;;;13.32;4.63;;;;;;;17.94;83.92;100726.31;5074731;28;20044;-61
2022/06/25 05:21:22;;;;;;;15.57;4.75;;;;;;;18.01;82.66;100720.97;5074661;28;20052;-61
2022/06/25 05:23:49;;;;;;;9.75;4.53;;;;;;;18.15;81.81;100722.63;5074677;28;20511;-61
2022/06/25 05:26:17;;;;;;;13.25;4.60;;;;;;;18.12;83.02;100727.56;5071737;28;20082;-62
2022/06/25 05:28:44;;;;;;;14.77;4.57;;;;;;;18.09;83.30;100730.69;5075898;28;20045;-62
2022/06/25 05:31:11;;;;;;;11.25;4.50;;;;;;;18.15;82.57;100727.19;5073106;28;20044;-61
2022/06/25 05:33:38;;;;;;;12.95;4.88;;;;;;;18.16;82.84;100732.34;5073973;28;20055;-61
2022/06/25 05:36:05;;;;;;;16.10;4.60;;;;;;;18.23;83.26;100730.50;5074396;28;20415;-61
2022/06/25 05:38:34;;;;;;;17.27;4.90;;;;;;;18.22;82.07;100736.06;5074600;28;20045;-62
2022/06/25 05:41:00;;;;;;;15.35;4.63;;;;;;;18.28;82.39;100734.41;5074438;28;20088;-62
2022/06/25 05:43:27;;;;;;;15.20;4.78;;;;;;;18.30;82.27;100738.56;5074327;28;20567;-61
2022/06/25 05:45:53;;;;;;;13.00;4.80;;;;;;;18.30;82.99;100745.78;5074419;28;20041;-61
2022/06/25 05:48:20;;;;;;;13.80;4.70;;;;;;;18.28;83.38;100737.09;5074103;28;20041;-62
2022/06/25 05:50:47;;;;;;;11.15;4.68;;;;;;;18.28;82.82;100740.63;5073561;28;20068;-62
2022/06/25 05:53:13;;;;;;;12.93;4.93;;;;;;;18.31;82.34;100748.25;5074118;28;20048;-61
2022/06/25 05:55:40;;;;;;;14.10;4.68;;;;;;;18.44;82.38;100749.31;5073575;28;20094;-62
2022/06/25 05:58:07;;;;;;;11.55;4.65;;;;;;;18.47;80.14;100755.09;5055724;28;20540;-61
2022/06/25 06:00:33;;;;;;;14.57;4.30;;;;;;;18.51;79.59;100755.53;5074007;28;20056;-61
2022/06/25 06:03:00;;;;;;;16.45;4.68;;;;;;;18.51;78.81;100759.03;5074038;28;20052;-61
2022/06/25 06:05:28;;;;;;;15.35;4.90;;;;;;;18.60;78.31;100756.97;5073269;28;20079;-62
2022/06/25 06:07:55;;;;;;;11.57;4.40;;;;;;;18.61;77.86;100762.13;5073935;28;20570;-62
2022/06/25 06:10:22;;;;;;;15.57;4.53;;;;;;;18.66;78.47;100755.31;5073593;28;20102;-62
2022/06/25 06:12:49;;;;;;;13.45;4.72;;;;;;;18.70;78.12;100757.38;5073634;28;20036;-62
2022/06/25 06:15:15;;;;;;;13.50;4.20;;;;;;;18.74;76.26;100753.25;5073511;28;20094;-61
2022/06/25 06:17:42;;;;;;;10.07;3.90;;;;;;;18.75;77.12;100757.56;5073598;28;20048;-62
2022/06/25 06:20:09;;;;;;;19.05;4.78;;;;;;;18.85;74.43;100759.88;5073688;28;20584;-61
2022/06/25 06:22:36;;;;;;;16.20;4.30;;;;;;;18.85;74.25;100762.56;5073723;28;20543;-61
2022/06/25 06:25:03;;;;;;;10.52;4.40;;;;;;;18.90;75.19;100767.31;5073396;28;20455;-61
2022/06/25 06:27:30;;;;;;;13.25;4.35;;;;;;;18.96;73.41;100769.19;5073210;28;20040;-62
2022/06/25 06:29:57;;;;;;;25.63;4.32;;;;;;;18.93;72.96;100770.41;5073718;28;20054;-61
2022/06/25 06:32:24;;;;;;;15.15;4.05;;;;;;;19.06;73.14;100779.50;5072608;28;20098;-62
2022/06/25 06:34:50;;;;;;;12.65;3.92;;;;;;;19.05;72.93;100772.47;5073676;28;20558;-61
2022/06/25 06:37:17;;;;;;;12.50;4.20;;;;;;;19.02;73.07;100759.44;5073393;28;20394;-62
2022/06/25 06:39:45;;;;;;;13.48;4.22;;;;;;;18.95;73.79;100767.50;5073553;28;20044;-62
2022/06/25 06:42:12;;;;;;;12.32;3.83;;;;;;;19.26;70.57;100777.59;5073430;28;20094;-61
2022/06/25 06:44:40;;;;;;;15.80;4.00;;;;;;;19.18;72.05;100773.25;5073573;28;20513;-61
2022/06/25 06:47:07;;;;;;;14.48;3.47;;;;;;;19.09;72.23;100769.16;5073282;28;20048;-61
2022/06/25 06:49:34;;;;;;;11.00;3.70;;;;;;;19.19;72.17;100776.78;5073200;28;20444;-61
2022/06/25 06:52:01;;;;;;;14.60;3.85;;;;;;;19.25;72.11;100777.81;5072923;28;20059;-61
2022/06/25 06:54:28;;;;;;;11.10;3.80;;;;;;;19.26;73.35;100776.75;5073261;28;20084;-62
2022/06/25 06:56:55;;;;;;;16.10;3.67;;;;;;;19.29;71.26;100782.56;5073177;28;20086;-62
2022/06/25 06:59:22;;;;;;;12.80;4.10;;;;;;;19.33;72.60;100782.97;5073080;28;20462;-62
2022/06/25 07:01:48;;;;;;;12.25;3.60;;;;;;;19.28;70.65;100788.97;5072987;28;20118;-62
2022/06/25 07:04:15;;;;;;;9.65;3.53;;;;;;;19.33;71.00;100775.69;5072733;28;20076;-62
2022/06/25 07:06:43;;;;;;;12.00;3.50;;;;;;;19.36;71.80;100788.75;5072932;28;20035;-61
2022/06/25 07:09:09;;;;;;;8.20;3.17;;;;;;;19.38;71.44;100783.16;5051277;28;20067;-62
2022/06/25 07:11:36;;;;;;;10.57;3.75;;;;;;;19.45;70.03;100785.84;5074647;28;20055;-62
2022/06/25 07:14:04;;;;;;;14.40;3.88;;;;;;;19.62;70.16;100778.09;5076555;28;20037;-62
2022/06/25 07:16:32;;;;;;;15.98;4.10;;;;;;;19.60;70.14;100785.56;5077123;28;20052;-62
2022/06/25 07:19:00;;;;;;;14.70;3.60;;;;;;;19.66;69.72;100782.84;5076806;28;20105;-62
2022/06/25 07:21:28;;;;;;;7.05;3.53;;;;;;;19.67;69.13;100787.19;5077001;28;20047;-62
2022/06/25 07:23:55;;;;;;;9.68;3.10;;;;;;;19.76;68.07;100787.81;5058772;28;20413;-61
2022/06/25 07:26:22;;;;;;;16.98;3.10;;;;;;;19.82;65.75;100786.94;5076358;28;20037;-62
2022/06/25 07:28:51;;;;;;;13.40;3.10;;;;;;;19.90;65.55;100784.03;5088449;28;20097;-62
2022/06/25 07:31:19;;;;;;;19.05;3.53;;;;;;;19.86;66.14;100784.66;5096032;28;20494;-62
2022/06/25 07:33:46;;;;;;;8.13;2.70;;;;;;;19.91;67.21;100785.66;5082314;28;20040;-62
2022/06/25 07:36:13;;;;;;;14.95;3.00;;;;;;;19.98;65.71;100787.50;5058772;28;20389;-60
2022/06/25 07:38:40;;;;;;;12.55;3.17;;;;;;;20.19;64.31;100783.66;5064222;28;20510;-62
2022/06/25 07:41:07;;;;;;;8.07;2.60;;;;;;;20.05;63.75;100778.34;5073946;28;20049;-62
2022/06/25 07:43:33;;;;;;;16.30;3.00;;;;;;;20.11;63.43;100788.25;5076386;28;20072;-63
2022/06/25 07:46:00;;;;;;;13.02;2.90;;;;;;;20.21;63.03;100785.09;5076147;28;20074;-63
2022/06/25 07:48:27;;;;;;;19.08;3.33;;;;;;;20.28;64.12;100774.25;5076170;28;20498;-62
2022/06/25 07:53:40;;;;;;;15.30;2.97;;;;;;;20.33;63.43;100777.94;5076166;28;20045;-63
2022/06/25 07:56:07;;;;;;;11.98;2.80;;;;;;;20.40;63.43;100779.78;5075096;28;20040;-62
2022/06/25 07:58:34;;;;;;;13.40;3.10;;;;;;;20.46;63.20;100773.53;5072303;28;20052;-62
2022/06/25 08:01:00;;;;;;;13.30;2.95;;;;;;;20.55;64.42;100769.50;5082777;28;20044;-61
2022/06/25 08:03:27;;;;;;;11.70;2.90;;;;;;;20.70;63.62;100771.91;5080197;28;20122;-62
2022/06/25 08:05:55;;;;;;;14.57;3.00;;;;;;;20.82;62.37;100769.34;5071975;28;20440;-64
2022/06/25 08:08:23;;;;;;;14.80;2.90;;;;;;;20.97;62.87;100769.78;5038861;28;20037;-64
2022/06/25 08:10:51;;;;;;;10.10;2.72;;;;;;;21.02;60.93;100778.03;5055824;28;20075;-64
2022/06/25 08:13:19;;;;;;;10.18;2.60;;;;;;;21.09;59.21;100776.13;5055625;28;20072;-63
2022/06/25 08:15:46;;;;;;;10.88;2.40;;;;;;;21.16;58.22;100775.25;5065317;28;20051;-63
2022/06/25 08:18:13;;;;;;;12.95;2.60;;;;;;;21.15;58.51;100777.09;5075827;28;20047;-63
2022/06/25 08:20:39;;;;;;;10.70;2.70;;;;;;;21.35;59.99;100768.78;5074848;28;20559;-62
2022/06/25 08:23:06;;;;;;;13.88;2.83;;;;;;;21.50;60.13;100770.31;5075100;28;20043;-62
2022/06/25 08:25:33;;;;;;;12.48;3.15;;;;;;;21.52;58.99;100784.41;5075795;28;20044;-63
2022/06/25 08:28:04;;;;;;;12.35;2.78;;;;;;;21.60;58.84;100778.72;5075713;28;20053;-62
2022/06/25 08:30:31;;;;;;;10.38;2.30;;;;;;;21.62;55.17;100779.31;5075059;28;20049;-62
2022/06/25 08:32:57;;;;;;;16.20;2.47;;;;;;;21.65;54.82;100784.25;5075164;28;20490;-62
2022/06/25 08:35:24;;;;;;;11.88;2.47;;;;;;;21.72;54.75;100779.59;5075261;28;20448;-63
2022/06/25 08:37:53;;;;;;;10.23;2.55;;;;;;;21.82;53.57;100787.16;5075083;28;20039;-62
2022/06/25 08:40:20;;;;;;;8.75;2.60;;;;;;;21.82;54.19;100779.06;5075445;28;20095;-63
2022/06/25 08:42:48;;;;;;;13.68;2.67;;;;;;;21.91;54.62;100784.97;5075313;28;20379;-62
2022/06/25 08:45:17;;;;;;;15.95;2.67;;;;;;;21.95;52.91;100786.16;5075416;28;20094;-62
2022/06/25 08:47:46;;;;;;;15.00;2.85;;;;;;;21.99;54.06;100780.09;5075092;28;20048;-63
2022/06/25 08:50:15;;;;;;;10.55;2.42;;;;;;;22.06;51.80;100774.56;5075303;28;20076;-63
2022/06/25 08:52:46;;;;;;;8.57;2.60;;;;;;;22.14;52.06;100773.41;5074655;28;20052;-63
2022/06/25 08:55:21;;;;;;;8.75;2.53;;;;;;;21.96;52.69;100782.41;5075262;28;20060;-62
2022/06/25 08:57:48;;;;;;;11.45;2.83;;;;;;;21.92;53.74;100778.50;5074978;28;20118;-62
2022/06/25 09:00:15;;;;;;;10.52;2.97;;;;;;;21.99;53.00;100779.25;5057285;28;20102;-62
2022/06/25 09:02:45;;;;;;;11.57;2.75;;;;;;;22.03;53.24;100783.97;5074871;28;20047;-62
2022/06/25 09:05:12;;;;;;;17.88;2.80;;;;;;;22.06;53.43;100771.88;5070462;28;20032;-62
2022/06/25 09:07:52;;;;;;;12.55;2.70;;;;;;;22.21;52.78;100774.16;5074857;28;20053;-62
2022/06/25 09:10:21;;;;;;;11.98;2.60;;;;;;;22.34;52.49;100765.03;5074981;28;20044;-62
2022/06/25 09:12:56;;;;;;;10.63;2.70;;;;;;;22.60;52.34;100771.94;5074801;28;20135;-62
2022/06/25 09:15:27;;;;;;;10.93;2.72;;;;;;;22.67;49.14;100769.94;5074483;28;20127;-63
2022/06/25 09:17:55;;;;;;;12.25;2.88;;;;;;;22.79;48.75;100768.06;5074707;28;20379;-63
2022/06/25 09:20:24;;;;;;;12.55;2.67;;;;;;;22.84;49.73;100763.84;5074790;28;20044;-63
2022/06/25 09:22:57;;;;;;;10.80;2.60;;;;;;;23.03;51.75;100759.97;5074079;28;20056;-63
2022/06/25 09:25:26;;;;;;;14.20;2.72;;;;;;;22.90;48.47;100768.28;5056893;28;20040;-63
2022/06/25 09:27:54;;;;;;;9.15;2.65;;;;;;;22.85;48.57;100760.91;5071729;28;21985;-63
2022/06/25 09:30:21;;;;;;;10.57;3.03;;;;;;;22.81;49.46;100765.09;5056521;28;20094;-63
2022/06/25 09:33:05;;;;;;;11.63;2.53;;;;;;;22.79;49.59;100768.06;5053056;28;20057;-63
2022/06/25 09:35:36;;;;;;;8.27;2.50;;;;;;;22.66;49.85;100760.16;5053568;28;20525;-63
2022/06/25 09:38:14;;;;;;;10.80;2.65;;;;;;;22.66;50.38;100759.34;5054066;28;20140;-62
2022/06/25 09:40:48;;;;;;;10.40;2.90;;;;;;;22.53;50.76;100763.91;5059217;28;20045;-63
2022/06/25 09:43:22;;;;;;;12.35;2.83;;;;;;;22.73;51.43;100758.19;5067642;28;20432;-63
2022/06/25 09:45:52;;;;;;;14.10;2.80;;;;;;;23.03;51.51;100753.69;5074205;28;20048;-66
2022/06/25 09:48:23;;;;;;;9.65;2.55;;;;;;;22.92;50.46;100752.66;5074105;28;20037;-64
2022/06/25 09:51:11;;;;;;;11.80;2.80;;;;;;;22.89;50.83;100756.66;5055461;28;20088;-62
2022/06/25 09:53:56;;;;;;;17.05;2.75;;;;;;;22.91;52.63;100757.25;5073787;28;20049;-63
2022/06/25 09:56:33;;;;;;;14.20;2.58;;;;;;;23.08;51.12;100757.38;5074013;28;20468;-63
2022/06/25 09:59:00;;;;;;;9.00;2.38;;;;;;;23.19;50.40;100755.72;5074051;28;20093;-63
2022/06/25 10:01:29;;;;;;;9.23;3.03;;;;;;;23.54;52.70;100760.25;5073890;28;20067;-63
2022/06/25 10:03:56;;;;;;;8.50;2.63;;;;;;;23.55;48.93;100764.59;5073362;28;20047;-63
2022/06/25 10:06:24;;;;;;;12.18;2.40;;;;;;;23.81;50.80;100757.81;5055678;28;20157;-64
2022/06/25 10:08:55;;;;;;;13.43;2.60;;;;;;;24.12;49.06;100751.09;5073894;28;20043;-63
2022/06/25 10:11:25;;;;;;;14.30;2.63;;;;;;;24.23;46.32;100764.81;5073477;28;20090;-64
2022/06/25 10:13:52;;;;;;;13.30;2.70;;;;;;;23.81;46.59;100752.38;5073845;28;20067;-64
2022/06/25 10:16:20;;;;;;;9.52;2.50;;;;;;;23.63;46.60;100752.56;5073696;28;20056;-64
2022/06/25 10:18:49;;;;;;;8.10;2.25;;;;;;;23.79;48.33;100756.38;5073926;28;20098;-63
2022/06/25 10:21:18;;;;;;;10.32;2.33;;;;;;;23.86;48.96;100754.38;5056265;28;20165;-63
2022/06/25 10:23:45;;;;;;;9.63;2.50;;;;;;;23.91;46.83;100749.06;5055861;28;20074;-64
2022/06/25 10:26:13;;;;;;;9.65;2.47;;;;;;;23.75;46.92;100748.72;5073707;28;20041;-64
2022/06/25 10:28:41;;;;;;;10.32;2.38;;;;;;;23.54;48.17;100747.53;5073504;28;20055;-64
2022/06/25 10:31:13;;;;;;;8.70;2.78;;;;;;;23.56;48.31;100750.00;5073710;28;20117;-64
2022/06/25 10:34:02;;;;;;;10.10;2.30;;;;;;;23.65;48.08;100745.84;5072939;28;20048;-64
2022/06/25 10:36:49;;;;;;;9.68;2.55;;;;;;;23.65;48.21;100735.03;5068554;28;20083;-65
2022/06/25 10:44:47;;;;;;;10.73;2.40;;;;;;;24.01;48.60;100740.31;5111086;27;20351;-62
2022/06/25 10:47:14;;;;;;;11.68;2.50;;;;;;;23.86;47.11;100735.44;5110865;28;20044;-62
2022/06/25 10:49:41;;;;;;;8.68;2.20;;;;;;;23.85;47.29;100733.78;5109683;28;20048;-62
2022/06/25 10:52:08;;;;;;;11.98;2.70;;;;;;;24.04;48.02;100739.81;5111151;28;20046;-63
2022/06/25 10:54:37;;;;;;;13.15;2.55;;;;;;;24.12;47.48;100744.81;5109860;28;20044;-64
2022/06/25 10:57:04;;;;;;;9.15;2.25;;;;;;;24.23;46.25;100738.53;5110696;28;20097;-63
2022/06/25 11:02:16;;;;;;;8.50;2.42;;;;;;;24.50;46.31;100737.88;5090368;27;20392;-65
2022/06/25 11:04:53;;;;;;;10.45;2.47;;;;;;;24.43;44.37;100732.63;5082195;28;20406;-66
2022/06/25 11:07:23;;;;;;;13.13;2.50;;;;;;;24.47;47.72;100736.50;5079185;28;20123;-64
2022/06/25 11:09:55;;;;;;;14.35;2.30;;;;;;;24.46;45.45;100744.88;5086912;28;20044;-65
2022/06/25 11:12:24;;;;;;;11.50;2.92;;;;;;;24.33;45.75;100732.47;5089040;28;20458;-64
2022/06/25 11:15:08;;;;;;;12.25;2.70;;;;;;;24.53;47.62;100740.13;5077272;28;20081;-64
2022/06/25 11:17:35;;;;;;;11.60;2.22;;;;;;;24.63;46.33;100734.88;5065042;28;20062;-63
2022/06/25 11:20:09;;;;;;;12.40;2.50;;;;;;;24.42;44.77;100736.41;5076886;28;20050;-65
2022/06/25 11:22:51;;;;;;;13.68;2.72;;;;;;;24.21;45.14;100732.53;5075513;28;20506;-63
2022/06/25 11:30:52;;;;;;;10.25;2.60;;;;;;;24.22;45.98;100738.78;5084337;28;20047;-65
2022/06/25 11:33:19;;;;;;;9.80;2.70;;;;;;;24.07;46.50;100731.22;5087139;28;20082;-64
2022/06/25 11:35:46;;;;;;;11.82;2.60;;;;;;;24.44;46.35;100725.31;5088113;28;20036;-64
2022/06/25 11:38:16;;;;;;;14.77;2.33;;;;;;;24.65;46.56;100729.19;5120097;27;20044;-64
2022/06/25 11:40:43;;;;;;;9.43;2.80;;;;;;;24.82;45.98;100734.59;5086528;28;20078;-65
2022/06/25 11:43:10;;;;;;;12.68;2.85;;;;;;;24.98;46.79;100730.22;5079087;28;20048;-64
2022/06/25 11:45:55;;;;;;;13.05;2.60;;;;;;;24.83;44.27;100733.53;5087746;28;20036;-63
2022/06/25 11:48:26;;;;;;;9.05;2.47;;;;;;;24.64;45.08;100730.28;5089380;28;20075;-63
2022/06/25 11:50:55;;;;;;;;;;;;;;;24.73;45.12;100728.78;5090250;28;20036;-64
2022/06/25 11:53:21;;;;;;;8.85;2.35;;;;;;;24.91;46.74;100741.25;5081012;28;19951;-64
2022/06/25 11:55:57;;;;;;;16.00;3.28;;;;;;;24.79;45.45;100733.19;5086700;28;20052;-65